Time;durP1;ratioP1;P1;durP2;ratioP2;P2;SDS_P1;SDS_P2;PMS_P1;PMS_P2;Temp;Humidity;BMP_temperature;BMP_pressure;BME280_temperature;BME280_humidity;BME280_pressure;Samples;Min_cycle;Max_cycle;Signal;HPM_P1;HPM_P2
2024/01/22 00:00:20;;;;;;;8.00;3.22;;;;;;;;;;5033259;28;20264;-74
2024/01/22 00:02:45;;;;;;;7.07;3.00;;;;;;;;;;5037782;28;20201;-74
2024/01/22 00:05:11;;;;;;;6.22;2.60;;;;;;;;;;5044902;28;20213;-73
2024/01/22 00:07:37;;;;;;;7.05;3.08;;;;;;;;;;5049397;28;20510;-73
2024/01/22 00:10:04;;;;;;;6.40;3.05;;;;;;;;;;5035950;28;20252;-74
2024/01/22 00:12:30;;;;;;;8.35;3.03;;;;;;;;;;5033392;28;20217;-75
2024/01/22 00:14:55;;;;;;;9.25;3.00;;;;;;;;;;5034252;28;20623;-72
2024/01/22 00:17:22;;;;;;;6.82;3.00;;;;;;;;;;5042525;28;20260;-74
2024/01/22 00:19:47;;;;;;;7.53;2.67;;;;;;;;;;5037976;28;20630;-74
2024/01/22 00:22:13;;;;;;;6.15;2.88;;;;;;;;;;5030915;28;20186;-73
2024/01/22 00:24:40;;;;;;;4.97;2.75;;;;;;;;;;5039635;28;20228;-75
2024/01/22 00:27:05;;;;;;;4.75;2.38;;;;;;;;;;5031492;28;20690;-73
2024/01/22 00:29:30;;;;;;;7.68;2.80;;;;;;;;;;5031612;28;20481;-75
2024/01/22 00:31:56;;;;;;;5.10;2.90;;;;;;;;;;5046184;28;20221;-74
2024/01/22 00:34:21;;;;;;;6.57;2.63;;;;;;;;;;5030903;28;20197;-74
2024/01/22 00:36:47;;;;;;;6.75;2.63;;;;;;;;;;5039983;28;20190;-74
2024/01/22 00:39:12;;;;;;;5.63;2.80;;;;;;;;;;5033246;28;20551;-75
2024/01/22 00:41:37;;;;;;;8.02;2.78;;;;;;;;;;5043409;28;20259;-74
2024/01/22 00:44:03;;;;;;;7.07;2.83;;;;;;;;;;5046661;28;20200;-74
2024/01/22 00:46:29;;;;;;;8.23;3.20;;;;;;;;;;5032798;28;20318;-75
2024/01/22 00:48:54;;;;;;;7.65;2.63;;;;;;;;;;5041233;28;20570;-74
2024/01/22 00:51:19;;;;;;;6.45;2.13;;;;;;;;;;5026645;28;20312;-74
2024/01/22 00:53:45;;;;;;;7.20;2.38;;;;;;;;;;5045498;28;20188;-75
2024/01/22 00:56:10;;;;;;;6.15;2.72;;;;;;;;;;5034696;28;20182;-74
2024/01/22 00:58:36;;;;;;;4.40;2.50;;;;;;;;;;5027608;28;20200;-74
2024/01/22 01:01:02;;;;;;;7.07;2.78;;;;;;;;;;5028266;28;20190;-75
2024/01/22 01:03:27;;;;;;;6.35;2.72;;;;;;;;;;5048106;28;20239;-73
2024/01/22 01:05:52;;;;;;;5.75;2.35;;;;;;;;;;5035768;28;20699;-74
2024/01/22 01:08:18;;;;;;;4.32;2.40;;;;;;;;;;5030186;28;20201;-74
2024/01/22 01:10:43;;;;;;;3.75;2.30;;;;;;;;;;5031777;28;20194;-73
2024/01/22 01:13:09;;;;;;;5.38;3.08;;;;;;;;;;5041464;28;20193;-74
2024/01/22 01:15:34;;;;;;;5.10;2.15;;;;;;;;;;5047302;28;20239;-74
2024/01/22 01:17:59;;;;;;;6.38;2.15;;;;;;;;;;5036133;28;20217;-74
2024/01/22 01:20:25;;;;;;;5.95;2.15;;;;;;;;;;5035265;28;20188;-74
2024/01/22 01:22:50;;;;;;;3.60;2.38;;;;;;;;;;5031452;28;20194;-73
2024/01/22 01:25:16;;;;;;;3.35;2.30;;;;;;;;;;5049390;28;20666;-74
2024/01/22 01:27:41;;;;;;;4.13;2.10;;;;;;;;;;5037262;28;20662;-75
2024/01/22 01:30:07;;;;;;;4.95;2.08;;;;;;;;;;5030774;28;20279;-75
2024/01/22 01:32:33;;;;;;;5.35;2.30;;;;;;;;;;5032621;28;20259;-74
2024/01/22 01:34:58;;;;;;;6.40;2.28;;;;;;;;;;5053766;28;20185;-75
2024/01/22 01:37:24;;;;;;;3.72;2.30;;;;;;;;;;5061739;28;20201;-74
2024/01/22 01:39:49;;;;;;;4.72;2.50;;;;;;;;;;5042830;28;20202;-72
2024/01/22 01:42:14;;;;;;;4.95;2.30;;;;;;;;;;5014844;28;20190;-75
2024/01/22 01:44:40;;;;;;;4.85;2.30;;;;;;;;;;5050956;28;20229;-74
2024/01/22 01:47:05;;;;;;;4.10;2.20;;;;;;;;;;5042386;28;20325;-75
2024/01/22 01:49:31;;;;;;;3.83;2.03;;;;;;;;;;5046785;28;20254;-75
2024/01/22 01:51:57;;;;;;;4.18;2.20;;;;;;;;;;5042832;28;20610;-75
2024/01/22 01:54:24;;;;;;;6.28;2.30;;;;;;;;;;5030030;28;20583;-74
2024/01/22 01:56:51;;;;;;;5.32;2.85;;;;;;;;;;5050173;28;20190;-75
2024/01/22 01:59:18;;;;;;;4.28;2.13;;;;;;;;;;5049776;28;20212;-75
2024/01/22 02:01:44;;;;;;;5.38;2.30;;;;;;;;;;5033584;28;20653;-73
2024/01/22 02:04:09;;;;;;;3.22;2.33;;;;;;;;;;5029963;28;20294;-74
2024/01/22 02:06:34;;;;;;;6.47;2.22;;;;;;;;;;5038498;28;20221;-75
2024/01/22 02:09:00;;;;;;;5.97;2.50;;;;;;;;;;5045066;28;20224;-73
2024/01/22 02:11:25;;;;;;;6.78;2.28;;;;;;;;;;5033202;28;20194;-73
2024/01/22 02:13:52;;;;;;;4.95;2.28;;;;;;;;;;5049933;28;20512;-76
2024/01/22 02:16:18;;;;;;;4.93;2.55;;;;;;;;;;5042195;28;20221;-72
2024/01/22 02:18:44;;;;;;;3.88;2.05;;;;;;;;;;5033779;28;20743;-74
2024/01/22 02:21:09;;;;;;;3.38;2.05;;;;;;;;;;5042871;28;20239;-75
2024/01/22 02:23:35;;;;;;;5.32;2.65;;;;;;;;;;5038677;28;20186;-75
2024/01/22 02:26:00;;;;;;;4.60;2.25;;;;;;;;;;5032234;28;20214;-76
2024/01/22 02:28:28;;;;;;;4.57;2.30;;;;;;;;;;5038847;28;20263;-75
2024/01/22 02:30:54;;;;;;;4.18;2.40;;;;;;;;;;5038325;28;20200;-73
2024/01/22 02:33:19;;;;;;;5.53;2.63;;;;;;;;;;5032783;28;20178;-74
2024/01/22 02:35:44;;;;;;;3.53;2.60;;;;;;;;;;5030192;28;20289;-74
2024/01/22 02:38:10;;;;;;;5.93;2.40;;;;;;;;;;5047836;28;20186;-74
2024/01/22 02:40:35;;;;;;;4.75;2.50;;;;;;;;;;5051923;28;20220;-75
2024/01/22 02:43:01;;;;;;;4.18;2.30;;;;;;;;;;5040637;28;20683;-72
2024/01/22 02:45:26;;;;;;;7.28;2.40;;;;;;;;;;5035171;28;20631;-75
2024/01/22 02:47:51;;;;;;;6.47;2.58;;;;;;;;;;5045454;28;20239;-73
2024/01/22 02:50:17;;;;;;;5.95;2.13;;;;;;;;;;5035959;28;20200;-75
2024/01/22 02:52:42;;;;;;;6.90;2.60;;;;;;;;;;5031798;28;20536;-73
2024/01/22 02:55:08;;;;;;;4.93;2.50;;;;;;;;;;5036904;28;20182;-73
2024/01/22 02:57:33;;;;;;;4.90;2.22;;;;;;;;;;5030624;28;20193;-74
2024/01/22 02:59:59;;;;;;;3.60;2.28;;;;;;;;;;5035416;28;20194;-72
2024/01/22 03:02:24;;;;;;;4.05;2.10;;;;;;;;;;5042948;28;20193;-73
2024/01/22 03:04:50;;;;;;;6.38;2.28;;;;;;;;;;5035205;28;20625;-74
2024/01/22 03:07:15;;;;;;;3.17;1.88;;;;;;;;;;5033641;28;20597;-74
2024/01/22 03:09:40;;;;;;;4.03;2.15;;;;;;;;;;5040335;28;20187;-74
2024/01/22 03:12:06;;;;;;;4.07;2.00;;;;;;;;;;5043570;28;20266;-73
2024/01/22 03:14:31;;;;;;;5.28;2.63;;;;;;;;;;5040515;28;20177;-74
2024/01/22 03:16:57;;;;;;;4.88;2.03;;;;;;;;;;4994538;28;1181763;-75
2024/01/22 03:19:22;;;;;;;2.95;1.95;;;;;;;;;;5047319;28;20210;-75
2024/01/22 03:21:48;;;;;;;3.75;2.53;;;;;;;;;;5042405;28;20265;-73
2024/01/22 03:24:13;;;;;;;4.18;2.72;;;;;;;;;;5038112;28;20190;-74
2024/01/22 03:26:39;;;;;;;6.93;2.17;;;;;;;;;;5043915;28;20330;-75
2024/01/22 03:29:04;;;;;;;3.53;2.00;;;;;;;;;;5025837;28;20182;-76
2024/01/22 03:31:30;;;;;;;4.65;2.08;;;;;;;;;;5042204;28;20246;-74
2024/01/22 03:33:56;;;;;;;4.40;2.10;;;;;;;;;;5043029;28;20244;-78
2024/01/22 03:36:22;;;;;;;4.18;2.20;;;;;;;;;;5035339;28;20200;-77
2024/01/22 03:38:48;;;;;;;3.83;2.00;;;;;;;;;;5037613;28;20200;-78
2024/01/22 03:41:13;;;;;;;5.03;2.05;;;;;;;;;;5038329;28;20194;-74
2024/01/22 03:43:42;;;;;;;4.30;1.77;;;;;;;;;;5047293;28;20185;-75
2024/01/22 03:46:08;;;;;;;3.13;2.03;;;;;;;;;;5028722;28;20202;-74
2024/01/22 03:48:33;;;;;;;5.65;2.50;;;;;;;;;;5048632;28;20330;-75
2024/01/22 03:50:59;;;;;;;3.53;1.88;;;;;;;;;;5032902;28;20276;-77
2024/01/22 03:53:24;;;;;;;5.35;2.38;;;;;;;;;;5040253;28;20197;-76
2024/01/22 03:55:49;;;;;;;3.05;2.03;;;;;;;;;;5035808;28;20181;-75
2024/01/22 03:58:15;;;;;;;3.85;2.00;;;;;;;;;;5041469;28;20181;-77
2024/01/22 04:00:40;;;;;;;3.13;2.03;;;;;;;;;;5018498;28;20269;-77
2024/01/22 04:03:06;;;;;;;3.05;2.15;;;;;;;;;;5044580;28;20193;-74
2024/01/22 04:05:31;;;;;;;4.20;2.38;;;;;;;;;;5036310;28;20333;-74
2024/01/22 04:07:57;;;;;;;2.45;2.03;;;;;;;;;;5046859;28;20213;-75
2024/01/22 04:10:23;;;;;;;2.95;2.25;;;;;;;;;;5031067;28;20178;-75
2024/01/22 04:12:49;;;;;;;4.05;2.45;;;;;;;;;;5035344;28;20558;-75
2024/01/22 04:15:14;;;;;;;3.17;1.90;;;;;;;;;;5035453;28;20228;-77
2024/01/22 04:17:40;;;;;;;3.38;2.13;;;;;;;;;;5036079;28;20244;-75
2024/01/22 04:20:06;;;;;;;5.22;2.60;;;;;;;;;;5035893;28;20196;-78
2024/01/22 04:22:32;;;;;;;2.63;2.15;;;;;;;;;;5044148;28;20513;-75
2024/01/22 04:24:58;;;;;;;2.60;2.08;;;;;;;;;;5041600;28;20774;-75
2024/01/22 04:27:23;;;;;;;3.55;1.90;;;;;;;;;;5038857;28;20221;-78
2024/01/22 04:29:48;;;;;;;3.97;2.35;;;;;;;;;;5046774;28;20182;-77
2024/01/22 04:32:14;;;;;;;7.28;2.45;;;;;;;;;;5041684;28;20565;-76
2024/01/22 04:34:39;;;;;;;3.40;2.00;;;;;;;;;;5028917;28;20209;-76
2024/01/22 04:37:06;;;;;;;2.92;2.13;;;;;;;;;;5042439;28;20181;-77
2024/01/22 04:39:31;;;;;;;4.45;2.20;;;;;;;;;;5039216;28;20190;-77
2024/01/22 04:41:57;;;;;;;3.95;2.28;;;;;;;;;;5028645;28;20201;-77
2024/01/22 04:44:22;;;;;;;3.55;2.22;;;;;;;;;;5043025;28;20384;-75
2024/01/22 04:46:48;;;;;;;4.00;2.22;;;;;;;;;;5030736;28;20196;-76
2024/01/22 04:49:14;;;;;;;2.20;2.00;;;;;;;;;;5028322;28;20210;-75
2024/01/22 04:51:42;;;;;;;4.25;2.10;;;;;;;;;;5026554;28;20632;-76
2024/01/22 04:54:09;;;;;;;4.78;2.17;;;;;;;;;;5028256;28;20189;-77
2024/01/22 04:56:44;;;;;;;5.38;2.35;;;;;;;;;;5020917;28;20189;-78
2024/01/22 04:59:10;;;;;;;3.03;1.95;;;;;;;;;;5030054;28;20193;-80
2024/01/22 05:01:36;;;;;;;3.17;1.95;;;;;;;;;;5036693;28;20556;-76
2024/01/22 05:04:02;;;;;;;4.50;1.90;;;;;;;;;;5037814;28;20736;-76
2024/01/22 05:06:27;;;;;;;4.15;1.90;;;;;;;;;;5041455;28;20192;-75
2024/01/22 05:08:53;;;;;;;4.55;2.45;;;;;;;;;;5033416;28;20286;-77
2024/01/22 05:11:18;;;;;;;4.60;2.03;;;;;;;;;;5043039;28;20186;-75
2024/01/22 05:13:52;;;;;;;3.45;1.77;;;;;;;;;;5033652;28;20190;-76
2024/01/22 05:16:18;;;;;;;3.33;1.80;;;;;;;;;;5037417;28;20221;-77
2024/01/22 05:18:44;;;;;;;2.78;1.70;;;;;;;;;;5019778;28;20245;-78
2024/01/22 05:21:11;;;;;;;3.05;1.70;;;;;;;;;;5029655;28;20204;-75
2024/01/22 05:23:37;;;;;;;2.85;1.77;;;;;;;;;;5029710;28;20682;-76
2024/01/22 05:26:03;;;;;;;1.75;1.60;;;;;;;;;;5038786;28;20232;-76
2024/01/22 05:28:28;;;;;;;4.25;1.65;;;;;;;;;;5030877;28;20186;-75
2024/01/22 05:30:53;;;;;;;2.60;1.50;;;;;;;;;;5060576;28;20272;-76
2024/01/22 05:33:19;;;;;;;1.50;1.40;;;;;;;;;;5045980;28;20554;-77
2024/01/22 05:35:44;;;;;;;2.42;1.73;;;;;;;;;;5022849;28;20183;-75
2024/01/22 05:38:10;;;;;;;3.95;1.50;;;;;;;;;;5037536;28;20437;-75
2024/01/22 05:40:35;;;;;;;1.98;1.70;;;;;;;;;;5038016;28;20514;-76
2024/01/22 05:43:01;;;;;;;3.45;1.58;;;;;;;;;;5038825;28;20194;-74
2024/01/22 05:45:26;;;;;;;2.95;1.52;;;;;;;;;;5043602;28;20214;-76
2024/01/22 05:47:52;;;;;;;2.08;1.60;;;;;;;;;;5035792;28;20218;-76
2024/01/22 05:50:17;;;;;;;1.95;1.73;;;;;;;;;;5024825;28;20194;-74
2024/01/22 05:52:42;;;;;;;2.92;1.60;;;;;;;;;;5032031;28;20203;-75
2024/01/22 05:55:08;;;;;;;4.30;2.05;;;;;;;;;;5017808;28;20178;-76
2024/01/22 05:57:33;;;;;;;3.42;1.65;;;;;;;;;;5043072;28;20669;-75
2024/01/22 05:59:59;;;;;;;2.38;1.80;;;;;;;;;;5020137;28;20178;-74
2024/01/22 06:02:25;;;;;;;4.38;1.92;;;;;;;;;;5047984;28;20221;-75
2024/01/22 06:04:50;;;;;;;2.67;1.73;;;;;;;;;;5041346;28;20293;-75
2024/01/22 06:07:17;;;;;;;2.35;1.42;;;;;;;;;;5044911;28;20189;-77
2024/01/22 06:09:42;;;;;;;3.58;1.92;;;;;;;;;;5058736;28;20192;-78
2024/01/22 06:12:08;;;;;;;3.38;1.77;;;;;;;;;;5060217;28;20196;-76
2024/01/22 06:14:34;;;;;;;1.98;1.45;;;;;;;;;;5056520;28;20212;-75
2024/01/22 06:16:59;;;;;;;2.60;1.92;;;;;;;;;;5026611;28;20232;-78
2024/01/22 06:19:25;;;;;;;3.13;1.52;;;;;;;;;;5043500;28;20317;-77
2024/01/22 06:21:50;;;;;;;4.20;1.83;;;;;;;;;;5028856;28;20236;-78
2024/01/22 06:24:16;;;;;;;2.45;1.50;;;;;;;;;;5028132;28;20202;-76
2024/01/22 06:26:41;;;;;;;2.65;1.65;;;;;;;;;;5041380;28;20597;-75
2024/01/22 06:29:11;;;;;;;2.65;1.38;;;;;;;;;;5022203;28;20324;-76
2024/01/22 06:31:37;;;;;;;3.67;1.58;;;;;;;;;;5036270;28;20212;-77
2024/01/22 06:34:03;;;;;;;2.88;1.38;;;;;;;;;;5038475;28;20186;-78
2024/01/22 06:36:29;;;;;;;3.17;1.35;;;;;;;;;;5035279;28;20185;-76
2024/01/22 06:38:55;;;;;;;2.72;1.30;;;;;;;;;;5041746;28;20194;-75
2024/01/22 06:41:22;;;;;;;2.30;1.33;;;;;;;;;;5026036;28;20721;-75
2024/01/22 06:43:47;;;;;;;3.00;1.30;;;;;;;;;;5039745;28;20260;-75
2024/01/22 06:46:13;;;;;;;2.97;1.30;;;;;;;;;;5040052;28;20217;-76
2024/01/22 06:48:38;;;;;;;5.40;1.40;;;;;;;;;;5048760;28;20224;-76
2024/01/22 06:51:04;;;;;;;4.25;1.33;;;;;;;;;;5045297;28;20189;-75
2024/01/22 06:53:29;;;;;;;3.42;1.77;;;;;;;;;;5039008;28;20195;-77
2024/01/22 06:55:55;;;;;;;2.72;1.33;;;;;;;;;;5035728;28;20216;-77
2024/01/22 06:58:20;;;;;;;2.78;1.38;;;;;;;;;;5042038;28;20407;-76
2024/01/22 07:00:47;;;;;;;3.20;1.20;;;;;;;;;;5040591;28;20212;-77
2024/01/22 07:03:13;;;;;;;7.20;1.40;;;;;;;;;;5052875;28;20185;-77
2024/01/22 07:05:39;;;;;;;2.85;1.42;;;;;;;;;;5025530;28;20688;-76
2024/01/22 07:08:05;;;;;;;3.85;1.02;;;;;;;;;;5040638;28;20198;-77
2024/01/22 07:10:31;;;;;;;2.13;1.13;;;;;;;;;;5026274;28;20720;-75
2024/01/22 07:12:57;;;;;;;4.00;1.20;;;;;;;;;;5041464;28;20280;-75
2024/01/22 07:15:22;;;;;;;2.75;0.93;;;;;;;;;;5022528;28;20312;-75
2024/01/22 07:17:48;;;;;;;3.00;1.08;;;;;;;;;;5032884;28;20201;-75
2024/01/22 07:20:16;;;;;;;3.45;1.25;;;;;;;;;;5038256;28;20181;-74
2024/01/22 07:22:42;;;;;;;4.75;1.13;;;;;;;;;;5049600;28;20197;-77
2024/01/22 07:25:10;;;;;;;2.65;1.33;;;;;;;;;;5034132;28;20729;-77
2024/01/22 07:27:39;;;;;;;3.22;1.70;;;;;;;;;;5019071;28;20189;-75
2024/01/22 07:30:11;;;;;;;2.33;1.40;;;;;;;;;;5039740;28;20664;-76
2024/01/22 07:32:37;;;;;;;2.80;1.48;;;;;;;;;;5031143;28;20253;-75
2024/01/22 07:35:08;;;;;;;2.78;1.17;;;;;;;;;;5039778;28;20604;-75
2024/01/22 07:37:44;;;;;;;4.20;1.13;;;;;;;;;;5028491;28;20193;-76
2024/01/22 07:40:10;;;;;;;2.28;1.10;;;;;;;;;;5038624;28;20189;-74
2024/01/22 07:42:37;;;;;;;3.15;1.63;;;;;;;;;;5041489;28;20185;-76
2024/01/22 07:45:05;;;;;;;5.43;1.30;;;;;;;;;;5043636;28;20292;-75
2024/01/22 07:47:31;;;;;;;4.20;1.40;;;;;;;;;;5046572;28;20186;-73
2024/01/22 07:49:57;;;;;;;3.13;1.10;;;;;;;;;;5035227;28;20820;-74
2024/01/22 07:52:23;;;;;;;3.30;1.20;;;;;;;;;;5042161;28;20255;-74
2024/01/22 07:54:49;;;;;;;4.30;1.20;;;;;;;;;;5036171;28;20564;-75
2024/01/22 07:57:15;;;;;;;5.60;1.20;;;;;;;;;;5037381;28;20272;-75
2024/01/22 07:59:41;;;;;;;6.28;1.15;;;;;;;;;;5038610;28;20220;-74
2024/01/22 08:02:07;;;;;;;3.42;1.70;;;;;;;;;;5039058;28;20194;-75
2024/01/22 08:04:33;;;;;;;4.50;0.95;;;;;;;;;;5042894;28;20206;-75
2024/01/22 08:07:03;;;;;;;3.83;1.13;;;;;;;;;;5040905;28;20193;-75
2024/01/22 08:09:30;;;;;;;4.53;1.25;;;;;;;;;;5024425;28;20336;-75
2024/01/22 08:11:55;;;;;;;6.30;1.17;;;;;;;;;;5035922;28;20657;-75
2024/01/22 08:14:21;;;;;;;6.40;1.50;;;;;;;;;;5044528;28;20255;-76
2024/01/22 08:16:46;;;;;;;4.88;1.27;;;;;;;;;;5045702;28;20221;-76
2024/01/22 08:19:12;;;;;;;4.45;1.10;;;;;;;;;;5046169;28;20240;-76
2024/01/22 08:21:37;;;;;;;7.47;1.98;;;;;;;;;;5037773;28;20695;-75
2024/01/22 08:24:03;;;;;;;7.25;1.33;;;;;;;;;;5035900;28;20760;-74
2024/01/22 08:26:29;;;;;;;11.35;1.70;;;;;;;;;;5044373;28;20566;-75
2024/01/22 08:28:54;;;;;;;7.18;1.65;;;;;;;;;;5033034;28;20503;-75
2024/01/22 08:31:19;;;;;;;6.13;1.45;;;;;;;;;;5030345;28;20626;-75
2024/01/22 08:33:45;;;;;;;8.18;1.75;;;;;;;;;;5042488;28;20189;-76
2024/01/22 08:36:11;;;;;;;11.05;1.40;;;;;;;;;;5026267;28;20175;-75
2024/01/22 08:38:36;;;;;;;7.97;1.30;;;;;;;;;;5043749;28;20200;-74
2024/01/22 08:41:03;;;;;;;9.98;1.58;;;;;;;;;;5035381;28;20288;-77
2024/01/22 08:43:29;;;;;;;9.23;2.17;;;;;;;;;;5027341;28;20268;-75
2024/01/22 08:45:55;;;;;;;9.73;1.73;;;;;;;;;;5043566;28;20314;-74
2024/01/22 08:48:20;;;;;;;10.18;1.90;;;;;;;;;;5041693;28;20551;-75
2024/01/22 08:50:45;;;;;;;14.20;2.10;;;;;;;;;;5044959;28;20197;-76
2024/01/22 08:53:11;;;;;;;9.43;1.83;;;;;;;;;;5020584;28;20254;-75
2024/01/22 08:55:36;;;;;;;15.93;2.35;;;;;;;;;;5031931;28;20210;-75
2024/01/22 08:58:02;;;;;;;11.00;2.33;;;;;;;;;;5032144;28;20182;-75
2024/01/22 09:00:27;;;;;;;9.80;2.15;;;;;;;;;;5023929;28;20334;-74
2024/01/22 09:02:53;;;;;;;14.32;2.22;;;;;;;;;;5034981;28;20185;-75
2024/01/22 09:05:18;;;;;;;14.52;2.38;;;;;;;;;;5017420;28;20881;-77
2024/01/22 09:07:45;;;;;;;14.13;2.30;;;;;;;;;;5030347;28;20194;-79
2024/01/22 09:10:11;;;;;;;9.20;1.70;;;;;;;;;;5033557;28;20185;-79
2024/01/22 09:12:37;;;;;;;15.02;2.53;;;;;;;;;;5035889;28;20227;-79
2024/01/22 09:15:03;;;;;;;13.20;2.72;;;;;;;;;;5040562;28;20559;-78
2024/01/22 09:17:30;;;;;;;15.60;2.80;;;;;;;;;;5038551;28;20692;-76
2024/01/22 09:19:56;;;;;;;14.45;2.63;;;;;;;;;;5037297;28;20205;-78
2024/01/22 09:22:22;;;;;;;14.95;2.42;;;;;;;;;;5038122;28;20182;-78
2024/01/22 09:24:47;;;;;;;11.23;2.55;;;;;;;;;;5027439;28;20563;-78
2024/01/22 09:27:13;;;;;;;12.63;2.55;;;;;;;;;;5027529;28;20696;-77
2024/01/22 09:29:41;;;;;;;10.68;2.67;;;;;;;;;;5042491;28;20444;-78
2024/01/22 09:32:08;;;;;;;13.52;3.05;;;;;;;;;;5017909;28;20218;-78
2024/01/22 09:34:33;;;;;;;14.73;2.67;;;;;;;;;;5041946;28;20849;-77
2024/01/22 09:36:58;;;;;;;14.43;2.90;;;;;;;;;;5027510;28;20185;-77
2024/01/22 09:39:24;;;;;;;15.63;2.28;;;;;;;;;;5044651;28;20189;-77
2024/01/22 09:41:53;;;;;;;13.35;2.75;;;;;;;;;;5047194;28;20193;-77
2024/01/22 09:44:18;;;;;;;15.30;3.00;;;;;;;;;;5031717;28;20551;-77
2024/01/22 09:46:46;;;;;;;17.33;2.50;;;;;;;;;;5031176;28;20194;-77
2024/01/22 09:49:11;;;;;;;18.95;2.70;;;;;;;;;;5045238;28;20284;-79
2024/01/22 09:51:42;;;;;;;19.05;2.97;;;;;;;;;;5043156;28;20217;-80
2024/01/22 09:54:11;;;;;;;8.25;2.67;;;;;;;;;;5031800;28;20586;-77
2024/01/22 09:56:37;;;;;;;12.68;2.40;;;;;;;;;;5031707;28;20178;-79
2024/01/22 09:59:15;;;;;;;11.63;2.35;;;;;;;;;;5048609;28;20181;-78
2024/01/22 10:01:42;;;;;;;8.85;1.83;;;;;;;;;;5049542;28;20197;-78
2024/01/22 10:04:11;;;;;;;11.25;1.98;;;;;;;;;;5056759;28;20178;-78
2024/01/22 10:06:36;;;;;;;15.57;2.90;;;;;;;;;;5045000;28;20302;-78
2024/01/22 10:09:03;;;;;;;11.18;2.38;;;;;;;;;;5033949;28;20214;-78
2024/01/22 10:11:33;;;;;;;10.75;2.33;;;;;;;;;;5031031;28;20189;-77
2024/01/22 10:13:59;;;;;;;12.85;2.60;;;;;;;;;;5037544;28;20281;-78
2024/01/22 10:16:29;;;;;;;14.15;2.17;;;;;;;;;;5045430;28;20742;-79
2024/01/22 10:18:56;;;;;;;15.70;2.90;;;;;;;;;;5012531;28;20309;-79
2024/01/22 10:21:22;;;;;;;16.08;2.88;;;;;;;;;;5032280;28;20188;-78
2024/01/22 10:24:04;;;;;;;15.32;2.35;;;;;;;;;;5043747;28;20757;-77
2024/01/22 10:26:30;;;;;;;14.15;2.72;;;;;;;;;;5030582;28;20226;-77
2024/01/22 10:29:13;;;;;;;18.60;2.67;;;;;;;;;;5014322;28;20203;-78
2024/01/22 10:31:55;;;;;;;12.27;2.50;;;;;;;;;;5022055;28;20192;-78
2024/01/22 10:34:22;;;;;;;13.25;2.65;;;;;;;;;;5032995;28;20194;-77
2024/01/22 10:37:07;;;;;;;12.20;2.25;;;;;;;;;;5043975;28;20257;-77
2024/01/22 10:39:37;;;;;;;15.02;2.50;;;;;;;;;;5038566;28;20196;-78
2024/01/22 10:42:11;;;;;;;19.65;3.03;;;;;;;;;;5027767;28;20605;-78
2024/01/22 10:44:37;;;;;;;13.98;3.00;;;;;;;;;;5049798;28;20289;-76
2024/01/22 10:47:04;;;;;;;15.63;2.45;;;;;;;;;;5049733;28;20232;-77
2024/01/22 10:49:30;;;;;;;14.40;2.60;;;;;;;;;;5025727;28;20591;-77
2024/01/22 10:51:58;;;;;;;10.88;2.70;;;;;;;;;;5040024;28;20194;-76
2024/01/22 10:54:24;;;;;;;15.82;2.75;;;;;;;;;;5042953;28;20433;-77
2024/01/22 10:56:54;;;;;;;15.07;3.10;;;;;;;;;;5032003;28;20265;-77
2024/01/22 10:59:21;;;;;;;22.65;3.85;;;;;;;;;;5031982;28;20605;-77
2024/01/22 11:01:51;;;;;;;20.30;3.95;;;;;;;;;;5043289;28;20189;-77
2024/01/22 11:04:23;;;;;;;19.95;3.05;;;;;;;;;;5035983;28;20217;-77
2024/01/22 11:06:51;;;;;;;22.45;3.45;;;;;;;;;;5046107;28;20250;-77
2024/01/22 11:09:19;;;;;;;22.25;4.05;;;;;;;;;;5039790;28;20194;-78
2024/01/22 11:11:50;;;;;;;29.33;3.92;;;;;;;;;;5017781;28;20555;-77
2024/01/22 11:14:15;;;;;;;23.42;4.07;;;;;;;;;;5020599;28;20190;-78
2024/01/22 11:16:41;;;;;;;20.73;3.42;;;;;;;;;;5037841;28;20640;-78
2024/01/22 11:19:07;;;;;;;31.95;4.50;;;;;;;;;;5044859;28;20328;-76
2024/01/22 11:21:37;;;;;;;19.95;3.83;;;;;;;;;;5045339;28;20194;-77
2024/01/22 11:24:05;;;;;;;23.92;4.40;;;;;;;;;;5056547;28;20189;-78
2024/01/22 11:26:30;;;;;;;28.15;5.18;;;;;;;;;;5046332;28;20205;-77
2024/01/22 11:29:09;;;;;;;29.42;4.47;;;;;;;;;;5020412;28;20339;-76
2024/01/22 11:31:36;;;;;;;27.35;4.32;;;;;;;;;;5038772;28;20556;-76
2024/01/22 11:34:04;;;;;;;30.85;5.32;;;;;;;;;;5032577;28;20181;-76
2024/01/22 11:36:48;;;;;;;29.10;4.50;;;;;;;;;;5042642;28;20547;-76
2024/01/22 11:39:35;;;;;;;23.65;4.28;;;;;;;;;;5050720;28;20185;-76
2024/01/22 11:42:22;;;;;;;28.15;4.85;;;;;;;;;;5032770;28;20258;-77
2024/01/22 11:44:49;;;;;;;24.70;4.15;;;;;;;;;;5041094;28;20217;-76
2024/01/22 11:47:16;;;;;;;32.25;4.85;;;;;;;;;;5043545;28;20201;-77
2024/01/22 11:49:42;;;;;;;28.33;4.68;;;;;;;;;;5048784;28;20246;-76
2024/01/22 11:52:14;;;;;;;30.20;4.20;;;;;;;;;;5045841;28;20331;-76
2024/01/22 11:54:53;;;;;;;25.17;5.15;;;;;;;;;;5026422;28;20182;-76
2024/01/22 11:57:18;;;;;;;31.08;4.65;;;;;;;;;;5028823;28;20193;-77
2024/01/22 12:00:01;;;;;;;30.70;5.00;;;;;;;;;;5033569;28;20185;-76
2024/01/22 12:02:27;;;;;;;35.95;5.13;;;;;;;;;;5038865;28;20673;-76
2024/01/22 12:05:10;;;;;;;34.70;4.57;;;;;;;;;;5034617;28;20237;-76
2024/01/22 12:07:40;;;;;;;24.48;4.03;;;;;;;;;;5041570;28;20265;-75
2024/01/22 12:10:22;;;;;;;30.15;5.70;;;;;;;;;;5046291;28;20181;-76
2024/01/22 12:12:52;;;;;;;28.55;3.88;;;;;;;;;;5028060;28;20236;-75
2024/01/22 12:15:17;;;;;;;25.95;4.32;;;;;;;;;;5037367;28;20313;-76
2024/01/22 12:17:43;;;;;;;22.75;4.03;;;;;;;;;;5015324;28;20285;-76
2024/01/22 12:20:09;;;;;;;21.77;3.50;;;;;;;;;;5040439;28;20269;-76
2024/01/22 12:22:35;;;;;;;28.63;4.50;;;;;;;;;;5039771;28;20708;-76
2024/01/22 12:25:08;;;;;;;31.42;5.20;;;;;;;;;;5047543;28;20209;-76
2024/01/22 12:27:35;;;;;;;26.42;3.95;;;;;;;;;;5035232;28;20197;-76
2024/01/22 12:30:03;;;;;;;24.95;5.05;;;;;;;;;;5032481;28;20231;-76
2024/01/22 12:32:28;;;;;;;17.95;3.25;;;;;;;;;;5032772;28;20196;-76
2024/01/22 12:34:55;;;;;;;17.60;2.85;;;;;;;;;;5044987;28;20178;-76
2024/01/22 12:37:23;;;;;;;22.52;4.00;;;;;;;;;;5048079;28;20625;-76
2024/01/22 12:39:49;;;;;;;25.90;3.72;;;;;;;;;;5038578;28;20181;-76
2024/01/22 12:42:21;;;;;;;24.10;4.05;;;;;;;;;;5048716;28;20779;-76
2024/01/22 12:45:00;;;;;;;19.10;3.45;;;;;;;;;;5045896;28;20232;-76
2024/01/22 12:47:27;;;;;;;25.75;3.88;;;;;;;;;;5040344;28;20271;-76
2024/01/22 12:49:52;;;;;;;23.50;3.92;;;;;;;;;;5035686;28;20363;-75
2024/01/22 12:52:20;;;;;;;24.10;3.38;;;;;;;;;;5025383;28;20313;-76
2024/01/22 12:54:45;;;;;;;16.73;2.97;;;;;;;;;;5030923;28;20196;-75
2024/01/22 12:57:11;;;;;;;23.30;3.42;;;;;;;;;;5031410;28;20206;-76
2024/01/22 12:59:36;;;;;;;17.85;3.25;;;;;;;;;;5041408;28;20200;-75
2024/01/22 13:02:01;;;;;;;18.90;3.55;;;;;;;;;;5035915;28;20561;-75
2024/01/22 13:04:27;;;;;;;21.60;3.55;;;;;;;;;;5033169;28;20229;-75
2024/01/22 13:06:54;;;;;;;16.42;3.40;;;;;;;;;;5027233;28;20189;-74
2024/01/22 13:09:20;;;;;;;23.70;4.15;;;;;;;;;;5035544;28;20220;-75
2024/01/22 13:11:46;;;;;;;18.08;3.53;;;;;;;;;;5030816;28;20213;-75
2024/01/22 13:14:12;;;;;;;24.17;4.03;;;;;;;;;;5043635;28;20201;-75
2024/01/22 13:16:37;;;;;;;23.13;3.85;;;;;;;;;;5035218;28;20225;-75
2024/01/22 13:19:03;;;;;;;21.58;3.60;;;;;;;;;;5039194;28;20223;-75
2024/01/22 13:21:28;;;;;;;22.25;3.40;;;;;;;;;;5032673;28;20247;-75
2024/01/22 13:23:53;;;;;;;22.20;3.83;;;;;;;;;;5032278;28;20186;-75
2024/01/22 13:26:19;;;;;;;21.45;3.30;;;;;;;;;;5037419;28;20225;-74
2024/01/22 13:28:45;;;;;;;16.45;3.10;;;;;;;;;;5045069;28;20243;-75
2024/01/22 13:31:11;;;;;;;21.40;3.00;;;;;;;;;;5035306;28;20277;-76
2024/01/22 13:33:37;;;;;;;22.65;4.03;;;;;;;;;;5041051;28;20269;-75
2024/01/22 13:36:04;;;;;;;23.10;3.53;;;;;;;;;;5037998;28;20669;-75
2024/01/22 13:38:32;;;;;;;22.35;3.17;;;;;;;;;;5040445;28;20499;-76
2024/01/22 13:41:01;;;;;;;22.13;3.40;;;;;;;;;;5030688;28;20305;-75
2024/01/22 13:43:30;;;;;;;19.92;3.30;;;;;;;;;;5036595;28;20194;-74
2024/01/22 13:45:55;;;;;;;20.23;3.17;;;;;;;;;;5043715;28;20221;-76
2024/01/22 13:48:21;;;;;;;19.85;2.80;;;;;;;;;;5032068;28;20209;-75
2024/01/22 13:50:51;;;;;;;18.02;2.88;;;;;;;;;;5033063;28;20190;-75
2024/01/22 13:53:17;;;;;;;16.45;3.03;;;;;;;;;;5037166;28;20186;-75
2024/01/22 13:55:43;;;;;;;17.45;2.72;;;;;;;;;;5039432;28;20180;-75
2024/01/22 13:58:10;;;;;;;16.58;3.53;;;;;;;;;;5032091;28;20195;-75
2024/01/22 14:00:36;;;;;;;23.08;3.33;;;;;;;;;;5026801;28;20288;-76
2024/01/22 14:03:04;;;;;;;17.77;3.22;;;;;;;;;;5046966;28;20577;-75
2024/01/22 14:05:30;;;;;;;17.02;2.75;;;;;;;;;;5033804;28;20661;-75
2024/01/22 14:07:56;;;;;;;22.90;3.17;;;;;;;;;;5049228;28;20240;-75
2024/01/22 14:10:22;;;;;;;13.52;2.70;;;;;;;;;;5048346;28;20188;-76
2024/01/22 14:12:47;;;;;;;20.80;2.80;;;;;;;;;;5037915;28;20190;-76
2024/01/22 14:15:13;;;;;;;19.38;3.60;;;;;;;;;;5050403;28;20260;-75
2024/01/22 14:17:38;;;;;;;22.38;3.85;;;;;;;;;;5047769;28;20192;-74
2024/01/22 14:20:04;;;;;;;19.48;3.13;;;;;;;;;;5042697;28;20279;-75
2024/01/22 14:22:30;;;;;;;19.67;4.10;;;;;;;;;;5042522;28;20189;-75
2024/01/22 14:24:55;;;;;;;20.75;3.03;;;;;;;;;;5043547;28;20672;-75
2024/01/22 14:27:20;;;;;;;17.98;3.55;;;;;;;;;;5042422;28;20196;-75
2024/01/22 14:29:46;;;;;;;20.20;3.20;;;;;;;;;;5042824;28;20217;-74
2024/01/22 14:32:12;;;;;;;18.92;2.78;;;;;;;;;;5041309;28;20280;-75
2024/01/22 14:34:37;;;;;;;19.83;3.13;;;;;;;;;;5036790;28;20215;-75